Somerset Center, Michigan
Current Conditions -  °F | °C
As of 5:34 AM on Saturday 25 Oct 2014 (Local Time) from KJYM Reporting Station
Haze Haze  
Wind Chill: 53°   Ceiling: 3900
Heat Index: 53°   Visibility: 5mi
Dew Point: 52°   Wind: 5mph
Humidity: 99%   Direction: 210°SSW
Pressure: 29.87"   Gusts: NA
Location:  42.05°N, 84.41°W
Report Text: KJYM 250934Z AUTO 21004KT 5SM BR BKN039 OVC050 11/11 A2987 RMK AO2 T01140112
Loading
Personal Weather Stations






























Interactive Weather Map
Tropical Storm Tracking
New forecast layout! Learn more

10-Day Weather Forecast

Advertisements
Track Severe Weather on mobile